sensor_id;sensor_type;location;lat;lon;timestamp;P1;durP1;ratioP1;P2;durP2;ratioP2
82176;SDS011;71758;48.714;9.584;2024-01-15T00:00:44;57.45;;;19.63;;
82176;SDS011;71758;48.714;9.584;2024-01-15T00:03:09;54.83;;;18.60;;
82176;SDS011;71758;48.714;9.584;2024-01-15T00:05:35;53.22;;;18.70;;
82176;SDS011;71758;48.714;9.584;2024-01-15T00:08:01;62.78;;;19.95;;
82176;SDS011;71758;48.714;9.584;2024-01-15T00:10:26;54.30;;;18.15;;
82176;SDS011;71758;48.714;9.584;2024-01-15T00:12:52;54.38;;;19.88;;
82176;SDS011;71758;48.714;9.584;2024-01-15T00:15:20;51.35;;;18.05;;
82176;SDS011;71758;48.714;9.584;2024-01-15T00:17:45;52.45;;;18.25;;
82176;SDS011;71758;48.714;9.584;2024-01-15T00:20:11;54.85;;;18.05;;
82176;SDS011;71758;48.714;9.584;2024-01-15T00:22:36;50.92;;;16.83;;
82176;SDS011;71758;48.714;9.584;2024-01-15T00:25:04;49.65;;;18.48;;
82176;SDS011;71758;48.714;9.584;2024-01-15T00:27:30;55.13;;;18.77;;
82176;SDS011;71758;48.714;9.584;2024-01-15T00:29:55;52.47;;;18.63;;
82176;SDS011;71758;48.714;9.584;2024-01-15T00:32:23;48.03;;;17.85;;
82176;SDS011;71758;48.714;9.584;2024-01-15T00:34:49;56.47;;;18.50;;
82176;SDS011;71758;48.714;9.584;2024-01-15T00:37:15;54.63;;;18.50;;
82176;SDS011;71758;48.714;9.584;2024-01-15T00:39:41;51.78;;;18.67;;
82176;SDS011;71758;48.714;9.584;2024-01-15T00:42:07;53.92;;;18.38;;
82176;SDS011;71758;48.714;9.584;2024-01-15T00:44:32;51.25;;;17.52;;
82176;SDS011;71758;48.714;9.584;2024-01-15T00:46:58;50.53;;;17.17;;
82176;SDS011;71758;48.714;9.584;2024-01-15T00:49:23;50.03;;;17.23;;
82176;SDS011;71758;48.714;9.584;2024-01-15T00:51:51;47.72;;;16.67;;
82176;SDS011;71758;48.714;9.584;2024-01-15T00:54:16;53.55;;;17.90;;
82176;SDS011;71758;48.714;9.584;2024-01-15T00:56:42;58.05;;;18.55;;
82176;SDS011;71758;48.714;9.584;2024-01-15T00:59:07;48.13;;;17.98;;
82176;SDS011;71758;48.714;9.584;2024-01-15T01:01:35;51.33;;;17.85;;
82176;SDS011;71758;48.714;9.584;2024-01-15T01:04:00;55.75;;;19.23;;
82176;SDS011;71758;48.714;9.584;2024-01-15T01:06:26;49.15;;;17.75;;
82176;SDS011;71758;48.714;9.584;2024-01-15T01:08:51;59.33;;;18.25;;
82176;SDS011;71758;48.714;9.584;2024-01-15T01:11:19;55.00;;;19.20;;
82176;SDS011;71758;48.714;9.584;2024-01-15T01:13:45;50.80;;;17.92;;
82176;SDS011;71758;48.714;9.584;2024-01-15T01:16:13;52.35;;;18.13;;
82176;SDS011;71758;48.714;9.584;2024-01-15T01:18:42;53.50;;;18.50;;
82176;SDS011;71758;48.714;9.584;2024-01-15T01:21:07;49.85;;;18.95;;
82176;SDS011;71758;48.714;9.584;2024-01-15T01:23:32;52.15;;;18.83;;
82176;SDS011;71758;48.714;9.584;2024-01-15T01:25:58;52.28;;;18.02;;
82176;SDS011;71758;48.714;9.584;2024-01-15T01:28:26;55.13;;;18.73;;
82176;SDS011;71758;48.714;9.584;2024-01-15T01:30:52;51.38;;;18.48;;
82176;SDS011;71758;48.714;9.584;2024-01-15T01:33:17;59.78;;;19.73;;
82176;SDS011;71758;48.714;9.584;2024-01-15T01:35:43;54.17;;;18.00;;
82176;SDS011;71758;48.714;9.584;2024-01-15T01:38:10;48.13;;;17.65;;
82176;SDS011;71758;48.714;9.584;2024-01-15T01:40:35;51.38;;;16.90;;
82176;SDS011;71758;48.714;9.584;2024-01-15T01:43:02;47.72;;;18.00;;
82176;SDS011;71758;48.714;9.584;2024-01-15T01:45:28;50.10;;;17.75;;
82176;SDS011;71758;48.714;9.584;2024-01-15T01:47:53;41.65;;;16.20;;
82176;SDS011;71758;48.714;9.584;2024-01-15T01:50:19;52.63;;;17.88;;
82176;SDS011;71758;48.714;9.584;2024-01-15T01:52:44;43.63;;;16.48;;
82176;SDS011;71758;48.714;9.584;2024-01-15T01:55:13;44.97;;;17.30;;
82176;SDS011;71758;48.714;9.584;2024-01-15T01:57:39;48.17;;;15.18;;
82176;SDS011;71758;48.714;9.584;2024-01-15T02:00:04;42.70;;;15.07;;
82176;SDS011;71758;48.714;9.584;2024-01-15T02:02:31;36.92;;;13.35;;
82176;SDS011;71758;48.714;9.584;2024-01-15T02:05:00;33.05;;;12.75;;
82176;SDS011;71758;48.714;9.584;2024-01-15T02:07:25;38.22;;;13.07;;
82176;SDS011;71758;48.714;9.584;2024-01-15T02:09:56;34.47;;;11.82;;
82176;SDS011;71758;48.714;9.584;2024-01-15T02:12:21;32.03;;;12.52;;
82176;SDS011;71758;48.714;9.584;2024-01-15T02:14:46;34.10;;;13.18;;
82176;SDS011;71758;48.714;9.584;2024-01-15T02:17:12;38.78;;;13.00;;
82176;SDS011;71758;48.714;9.584;2024-01-15T02:19:37;35.38;;;13.88;;
82176;SDS011;71758;48.714;9.584;2024-01-15T02:22:04;34.85;;;13.70;;
82176;SDS011;71758;48.714;9.584;2024-01-15T02:24:30;31.50;;;11.55;;
82176;SDS011;71758;48.714;9.584;2024-01-15T02:26:55;32.72;;;11.65;;
82176;SDS011;71758;48.714;9.584;2024-01-15T02:29:21;28.45;;;10.55;;
82176;SDS011;71758;48.714;9.584;2024-01-15T02:31:46;26.35;;;9.77;;
82176;SDS011;71758;48.714;9.584;2024-01-15T02:34:12;22.80;;;9.18;;
82176;SDS011;71758;48.714;9.584;2024-01-15T02:36:37;25.13;;;9.98;;
82176;SDS011;71758;48.714;9.584;2024-01-15T02:39:02;27.20;;;10.55;;
82176;SDS011;71758;48.714;9.584;2024-01-15T02:41:28;25.67;;;9.95;;
82176;SDS011;71758;48.714;9.584;2024-01-15T02:43:53;26.85;;;8.90;;
82176;SDS011;71758;48.714;9.584;2024-01-15T02:46:19;28.58;;;10.02;;
82176;SDS011;71758;48.714;9.584;2024-01-15T02:48:44;29.40;;;9.60;;
82176;SDS011;71758;48.714;9.584;2024-01-15T02:51:12;27.77;;;9.32;;
82176;SDS011;71758;48.714;9.584;2024-01-15T02:53:38;24.45;;;9.18;;
82176;SDS011;71758;48.714;9.584;2024-01-15T02:56:06;25.35;;;9.40;;
82176;SDS011;71758;48.714;9.584;2024-01-15T02:58:32;24.05;;;9.20;;
82176;SDS011;71758;48.714;9.584;2024-01-15T03:01:00;22.70;;;8.98;;
82176;SDS011;71758;48.714;9.584;2024-01-15T03:03:26;24.35;;;9.25;;
82176;SDS011;71758;48.714;9.584;2024-01-15T03:05:51;23.48;;;8.52;;
82176;SDS011;71758;48.714;9.584;2024-01-15T03:08:16;22.15;;;8.15;;
82176;SDS011;71758;48.714;9.584;2024-01-15T03:10:42;22.45;;;7.90;;
82176;SDS011;71758;48.714;9.584;2024-01-15T03:13:08;20.48;;;7.07;;
82176;SDS011;71758;48.714;9.584;2024-01-15T03:15:36;20.25;;;7.45;;
82176;SDS011;71758;48.714;9.584;2024-01-15T03:18:01;16.63;;;6.93;;
82176;SDS011;71758;48.714;9.584;2024-01-15T03:20:27;19.77;;;7.15;;
82176;SDS011;71758;48.714;9.584;2024-01-15T03:22:52;20.10;;;7.20;;
82176;SDS011;71758;48.714;9.584;2024-01-15T03:25:17;18.83;;;7.32;;
82176;SDS011;71758;48.714;9.584;2024-01-15T03:27:45;17.17;;;5.97;;
82176;SDS011;71758;48.714;9.584;2024-01-15T03:30:11;17.85;;;6.82;;
82176;SDS011;71758;48.714;9.584;2024-01-15T03:32:37;19.92;;;6.75;;
82176;SDS011;71758;48.714;9.584;2024-01-15T03:35:04;24.42;;;7.85;;
82176;SDS011;71758;48.714;9.584;2024-01-15T03:37:32;20.08;;;7.05;;
82176;SDS011;71758;48.714;9.584;2024-01-15T03:39:58;18.95;;;7.90;;
82176;SDS011;71758;48.714;9.584;2024-01-15T03:42:23;19.83;;;7.63;;
82176;SDS011;71758;48.714;9.584;2024-01-15T03:44:48;20.67;;;6.68;;
82176;SDS011;71758;48.714;9.584;2024-01-15T03:47:14;21.40;;;7.10;;
82176;SDS011;71758;48.714;9.584;2024-01-15T03:49:39;20.77;;;7.60;;
82176;SDS011;71758;48.714;9.584;2024-01-15T03:52:05;20.73;;;7.38;;
82176;SDS011;71758;48.714;9.584;2024-01-15T03:54:30;19.20;;;7.70;;
82176;SDS011;71758;48.714;9.584;2024-01-15T03:56:55;19.88;;;6.72;;
82176;SDS011;71758;48.714;9.584;2024-01-15T03:59:21;24.00;;;7.65;;
82176;SDS011;71758;48.714;9.584;2024-01-15T04:01:49;23.37;;;7.90;;
82176;SDS011;71758;48.714;9.584;2024-01-15T04:04:17;21.42;;;7.55;;
82176;SDS011;71758;48.714;9.584;2024-01-15T04:06:43;19.70;;;7.60;;
82176;SDS011;71758;48.714;9.584;2024-01-15T04:09:09;22.00;;;7.75;;
82176;SDS011;71758;48.714;9.584;2024-01-15T04:11:34;22.17;;;7.60;;
82176;SDS011;71758;48.714;9.584;2024-01-15T04:14:02;18.48;;;7.47;;
82176;SDS011;71758;48.714;9.584;2024-01-15T04:16:28;17.30;;;7.35;;
82176;SDS011;71758;48.714;9.584;2024-01-15T04:18:53;21.92;;;7.93;;
82176;SDS011;71758;48.714;9.584;2024-01-15T04:21:21;22.40;;;7.97;;
82176;SDS011;71758;48.714;9.584;2024-01-15T04:23:46;16.92;;;6.65;;
82176;SDS011;71758;48.714;9.584;2024-01-15T04:26:17;18.70;;;6.75;;
82176;SDS011;71758;48.714;9.584;2024-01-15T04:28:43;21.08;;;7.85;;
82176;SDS011;71758;48.714;9.584;2024-01-15T04:31:08;19.67;;;6.95;;
82176;SDS011;71758;48.714;9.584;2024-01-15T04:33:33;20.70;;;7.40;;
82176;SDS011;71758;48.714;9.584;2024-01-15T04:36:03;18.40;;;7.40;;
82176;SDS011;71758;48.714;9.584;2024-01-15T04:38:30;21.23;;;6.95;;
82176;SDS011;71758;48.714;9.584;2024-01-15T04:40:55;19.25;;;6.80;;
82176;SDS011;71758;48.714;9.584;2024-01-15T04:43:21;19.52;;;6.82;;
82176;SDS011;71758;48.714;9.584;2024-01-15T04:45:49;18.20;;;6.90;;
82176;SDS011;71758;48.714;9.584;2024-01-15T04:48:14;20.77;;;7.03;;
82176;SDS011;71758;48.714;9.584;2024-01-15T04:50:39;18.52;;;7.05;;
82176;SDS011;71758;48.714;9.584;2024-01-15T04:53:05;18.08;;;6.80;;
82176;SDS011;71758;48.714;9.584;2024-01-15T04:55:30;18.60;;;6.85;;
82176;SDS011;71758;48.714;9.584;2024-01-15T04:57:56;18.42;;;7.05;;
82176;SDS011;71758;48.714;9.584;2024-01-15T05:00:21;18.42;;;7.32;;
82176;SDS011;71758;48.714;9.584;2024-01-15T05:02:46;18.60;;;7.20;;
82176;SDS011;71758;48.714;9.584;2024-01-15T05:05:12;17.05;;;6.65;;
82176;SDS011;71758;48.714;9.584;2024-01-15T05:07:37;21.02;;;7.15;;
82176;SDS011;71758;48.714;9.584;2024-01-15T05:10:02;19.95;;;6.97;;
82176;SDS011;71758;48.714;9.584;2024-01-15T05:12:29;20.83;;;7.47;;
82176;SDS011;71758;48.714;9.584;2024-01-15T05:14:54;19.00;;;7.85;;
82176;SDS011;71758;48.714;9.584;2024-01-15T05:17:19;19.13;;;7.03;;
82176;SDS011;71758;48.714;9.584;2024-01-15T05:19:45;16.42;;;6.18;;
82176;SDS011;71758;48.714;9.584;2024-01-15T05:22:10;19.05;;;7.10;;
82176;SDS011;71758;48.714;9.584;2024-01-15T05:24:35;17.52;;;7.93;;
82176;SDS011;71758;48.714;9.584;2024-01-15T05:27:01;19.65;;;7.18;;
82176;SDS011;71758;48.714;9.584;2024-01-15T05:29:26;21.58;;;7.35;;
82176;SDS011;71758;48.714;9.584;2024-01-15T05:31:54;18.35;;;6.90;;
82176;SDS011;71758;48.714;9.584;2024-01-15T05:34:20;19.88;;;7.72;;
82176;SDS011;71758;48.714;9.584;2024-01-15T05:36:48;25.33;;;8.60;;
82176;SDS011;71758;48.714;9.584;2024-01-15T05:39:13;19.20;;;6.95;;
82176;SDS011;71758;48.714;9.584;2024-01-15T05:41:41;20.58;;;8.23;;
82176;SDS011;71758;48.714;9.584;2024-01-15T05:44:06;18.27;;;7.22;;
82176;SDS011;71758;48.714;9.584;2024-01-15T05:46:34;24.85;;;7.32;;
82176;SDS011;71758;48.714;9.584;2024-01-15T05:49:09;21.10;;;7.43;;
82176;SDS011;71758;48.714;9.584;2024-01-15T05:51:34;19.48;;;7.93;;
82176;SDS011;71758;48.714;9.584;2024-01-15T05:54:00;18.73;;;7.28;;
82176;SDS011;71758;48.714;9.584;2024-01-15T05:56:26;21.20;;;7.25;;
82176;SDS011;71758;48.714;9.584;2024-01-15T05:58:51;21.17;;;7.57;;
82176;SDS011;71758;48.714;9.584;2024-01-15T06:01:17;20.30;;;7.40;;
82176;SDS011;71758;48.714;9.584;2024-01-15T06:03:42;22.67;;;7.50;;
82176;SDS011;71758;48.714;9.584;2024-01-15T06:06:08;20.13;;;7.20;;
82176;SDS011;71758;48.714;9.584;2024-01-15T06:08:34;21.42;;;7.40;;
82176;SDS011;71758;48.714;9.584;2024-01-15T06:10:59;21.38;;;7.90;;
82176;SDS011;71758;48.714;9.584;2024-01-15T06:13:28;22.25;;;8.57;;
82176;SDS011;71758;48.714;9.584;2024-01-15T06:15:53;21.40;;;7.57;;
82176;SDS011;71758;48.714;9.584;2024-01-15T06:18:18;20.48;;;8.43;;
82176;SDS011;71758;48.714;9.584;2024-01-15T06:20:44;22.95;;;7.72;;
82176;SDS011;71758;48.714;9.584;2024-01-15T06:23:18;21.90;;;8.40;;
82176;SDS011;71758;48.714;9.584;2024-01-15T06:25:46;18.15;;;7.25;;
82176;SDS011;71758;48.714;9.584;2024-01-15T06:28:12;21.52;;;8.57;;
82176;SDS011;71758;48.714;9.584;2024-01-15T06:30:37;18.10;;;7.07;;
82176;SDS011;71758;48.714;9.584;2024-01-15T06:33:04;21.52;;;7.85;;
82176;SDS011;71758;48.714;9.584;2024-01-15T06:35:29;17.80;;;6.93;;
82176;SDS011;71758;48.714;9.584;2024-01-15T06:37:54;21.45;;;7.45;;
82176;SDS011;71758;48.714;9.584;2024-01-15T06:40:20;20.55;;;7.57;;
82176;SDS011;71758;48.714;9.584;2024-01-15T06:42:45;17.35;;;7.35;;
82176;SDS011;71758;48.714;9.584;2024-01-15T06:45:11;20.05;;;7.20;;
82176;SDS011;71758;48.714;9.584;2024-01-15T06:47:39;17.45;;;6.78;;
82176;SDS011;71758;48.714;9.584;2024-01-15T06:50:07;18.13;;;7.85;;
82176;SDS011;71758;48.714;9.584;2024-01-15T06:52:33;19.77;;;7.75;;
82176;SDS011;71758;48.714;9.584;2024-01-15T06:54:58;23.02;;;7.85;;
82176;SDS011;71758;48.714;9.584;2024-01-15T06:57:23;17.88;;;7.28;;
82176;SDS011;71758;48.714;9.584;2024-01-15T06:59:49;19.80;;;7.68;;
82176;SDS011;71758;48.714;9.584;2024-01-15T07:02:14;21.75;;;6.68;;
82176;SDS011;71758;48.714;9.584;2024-01-15T07:04:40;16.98;;;7.80;;
82176;SDS011;71758;48.714;9.584;2024-01-15T07:07:05;21.02;;;7.70;;
82176;SDS011;71758;48.714;9.584;2024-01-15T07:09:30;19.60;;;6.95;;
82176;SDS011;71758;48.714;9.584;2024-01-15T07:11:56;18.10;;;7.85;;
82176;SDS011;71758;48.714;9.584;2024-01-15T07:14:23;21.05;;;8.57;;
82176;SDS011;71758;48.714;9.584;2024-01-15T07:16:48;18.27;;;7.38;;
82176;SDS011;71758;48.714;9.584;2024-01-15T07:19:13;17.67;;;6.97;;
82176;SDS011;71758;48.714;9.584;2024-01-15T07:21:39;18.48;;;7.55;;
82176;SDS011;71758;48.714;9.584;2024-01-15T07:24:05;16.75;;;7.13;;
82176;SDS011;71758;48.714;9.584;2024-01-15T07:26:30;18.05;;;7.20;;
82176;SDS011;71758;48.714;9.584;2024-01-15T07:28:56;14.98;;;6.65;;
82176;SDS011;71758;48.714;9.584;2024-01-15T07:31:21;15.98;;;6.35;;
82176;SDS011;71758;48.714;9.584;2024-01-15T07:33:47;16.92;;;6.22;;
82176;SDS011;71758;48.714;9.584;2024-01-15T07:36:12;14.70;;;6.53;;
82176;SDS011;71758;48.714;9.584;2024-01-15T07:38:40;16.85;;;7.25;;
82176;SDS011;71758;48.714;9.584;2024-01-15T07:41:06;19.02;;;6.80;;
82176;SDS011;71758;48.714;9.584;2024-01-15T07:43:31;15.85;;;6.53;;
82176;SDS011;71758;48.714;9.584;2024-01-15T07:45:57;19.02;;;6.82;;
82176;SDS011;71758;48.714;9.584;2024-01-15T07:48:23;18.52;;;7.57;;
82176;SDS011;71758;48.714;9.584;2024-01-15T07:50:49;19.77;;;7.78;;
82176;SDS011;71758;48.714;9.584;2024-01-15T07:53:14;16.85;;;6.25;;
82176;SDS011;71758;48.714;9.584;2024-01-15T07:55:40;17.92;;;7.40;;
82176;SDS011;71758;48.714;9.584;2024-01-15T07:58:05;16.75;;;6.90;;
82176;SDS011;71758;48.714;9.584;2024-01-15T08:00:30;20.20;;;7.85;;
82176;SDS011;71758;48.714;9.584;2024-01-15T08:02:56;16.83;;;7.60;;
82176;SDS011;71758;48.714;9.584;2024-01-15T08:05:21;17.20;;;7.03;;
82176;SDS011;71758;48.714;9.584;2024-01-15T08:07:47;17.90;;;7.43;;
82176;SDS011;71758;48.714;9.584;2024-01-15T08:10:13;19.10;;;7.20;;
82176;SDS011;71758;48.714;9.584;2024-01-15T08:12:39;19.48;;;6.95;;
82176;SDS011;71758;48.714;9.584;2024-01-15T08:15:06;16.10;;;6.57;;
82176;SDS011;71758;48.714;9.584;2024-01-15T08:17:32;20.52;;;7.47;;
82176;SDS011;71758;48.714;9.584;2024-01-15T08:19:57;16.60;;;6.63;;
82176;SDS011;71758;48.714;9.584;2024-01-15T08:22:24;17.00;;;6.55;;
82176;SDS011;71758;48.714;9.584;2024-01-15T08:24:49;15.93;;;7.00;;
82176;SDS011;71758;48.714;9.584;2024-01-15T08:27:15;15.13;;;5.93;;
82176;SDS011;71758;48.714;9.584;2024-01-15T08:29:40;15.40;;;6.00;;
82176;SDS011;71758;48.714;9.584;2024-01-15T08:32:06;16.52;;;6.30;;
82176;SDS011;71758;48.714;9.584;2024-01-15T08:34:31;17.08;;;6.28;;
82176;SDS011;71758;48.714;9.584;2024-01-15T08:36:57;15.88;;;6.00;;
82176;SDS011;71758;48.714;9.584;2024-01-15T08:39:22;15.23;;;6.35;;
82176;SDS011;71758;48.714;9.584;2024-01-15T08:41:47;13.05;;;4.78;;
82176;SDS011;71758;48.714;9.584;2024-01-15T08:44:13;19.20;;;7.03;;
82176;SDS011;71758;48.714;9.584;2024-01-15T08:46:38;15.30;;;6.47;;
82176;SDS011;71758;48.714;9.584;2024-01-15T08:49:04;12.90;;;5.38;;
82176;SDS011;71758;48.714;9.584;2024-01-15T08:51:29;17.02;;;6.15;;
82176;SDS011;71758;48.714;9.584;2024-01-15T08:53:56;17.23;;;6.47;;
82176;SDS011;71758;48.714;9.584;2024-01-15T08:56:21;17.17;;;6.22;;
82176;SDS011;71758;48.714;9.584;2024-01-15T08:58:47;15.05;;;6.03;;
82176;SDS011;71758;48.714;9.584;2024-01-15T09:01:15;14.68;;;6.05;;
82176;SDS011;71758;48.714;9.584;2024-01-15T09:03:40;15.23;;;6.15;;
82176;SDS011;71758;48.714;9.584;2024-01-15T09:06:07;20.48;;;6.38;;
82176;SDS011;71758;48.714;9.584;2024-01-15T09:08:34;16.17;;;6.20;;
82176;SDS011;71758;48.714;9.584;2024-01-15T09:11:00;15.95;;;6.43;;
82176;SDS011;71758;48.714;9.584;2024-01-15T09:13:27;13.63;;;5.55;;
82176;SDS011;71758;48.714;9.584;2024-01-15T09:15:53;14.00;;;5.90;;
82176;SDS011;71758;48.714;9.584;2024-01-15T09:18:18;13.15;;;5.80;;
82176;SDS011;71758;48.714;9.584;2024-01-15T09:20:44;15.88;;;6.13;;
82176;SDS011;71758;48.714;9.584;2024-01-15T09:23:09;13.27;;;5.13;;
82176;SDS011;71758;48.714;9.584;2024-01-15T09:25:35;16.92;;;5.97;;
82176;SDS011;71758;48.714;9.584;2024-01-15T09:28:00;17.63;;;5.72;;
82176;SDS011;71758;48.714;9.584;2024-01-15T09:30:25;13.80;;;5.75;;
82176;SDS011;71758;48.714;9.584;2024-01-15T09:32:51;15.32;;;5.80;;
82176;SDS011;71758;48.714;9.584;2024-01-15T09:35:16;15.07;;;5.32;;
82176;SDS011;71758;48.714;9.584;2024-01-15T09:37:44;13.70;;;5.85;;
82176;SDS011;71758;48.714;9.584;2024-01-15T09:40:12;17.23;;;6.85;;
82176;SDS011;71758;48.714;9.584;2024-01-15T09:42:39;14.90;;;5.97;;
82176;SDS011;71758;48.714;9.584;2024-01-15T09:45:06;14.35;;;5.57;;
82176;SDS011;71758;48.714;9.584;2024-01-15T09:47:31;17.63;;;5.75;;
82176;SDS011;71758;48.714;9.584;2024-01-15T09:49:57;14.57;;;5.85;;
82176;SDS011;71758;48.714;9.584;2024-01-15T09:52:23;13.18;;;5.03;;
82176;SDS011;71758;48.714;9.584;2024-01-15T09:54:49;14.13;;;4.97;;
82176;SDS011;71758;48.714;9.584;2024-01-15T09:57:15;11.85;;;4.65;;
82176;SDS011;71758;48.714;9.584;2024-01-15T09:59:41;12.32;;;4.60;;
82176;SDS011;71758;48.714;9.584;2024-01-15T10:02:08;12.10;;;4.70;;
82176;SDS011;71758;48.714;9.584;2024-01-15T10:04:34;11.27;;;4.18;;
82176;SDS011;71758;48.714;9.584;2024-01-15T10:07:00;14.73;;;4.78;;
82176;SDS011;71758;48.714;9.584;2024-01-15T10:09:26;11.82;;;4.70;;
82176;SDS011;71758;48.714;9.584;2024-01-15T10:11:51;11.15;;;4.53;;
82176;SDS011;71758;48.714;9.584;2024-01-15T10:14:17;10.40;;;4.32;;
82176;SDS011;71758;48.714;9.584;2024-01-15T10:16:42;9.90;;;4.25;;
82176;SDS011;71758;48.714;9.584;2024-01-15T10:24:55;10.50;;;4.73;;
82176;SDS011;71758;48.714;9.584;2024-01-15T10:27:21;8.57;;;3.78;;
82176;SDS011;71758;48.714;9.584;2024-01-15T10:29:46;14.68;;;4.25;;
82176;SDS011;71758;48.714;9.584;2024-01-15T10:32:12;9.80;;;3.72;;
82176;SDS011;71758;48.714;9.584;2024-01-15T10:34:38;11.38;;;3.70;;
82176;SDS011;71758;48.714;9.584;2024-01-15T10:37:04;8.45;;;3.30;;
82176;SDS011;71758;48.714;9.584;2024-01-15T10:39:36;15.18;;;4.13;;
82176;SDS011;71758;48.714;9.584;2024-01-15T10:42:02;8.52;;;3.70;;
82176;SDS011;71758;48.714;9.584;2024-01-15T10:44:29;9.32;;;3.53;;
82176;SDS011;71758;48.714;9.584;2024-01-15T10:46:55;7.70;;;2.97;;
82176;SDS011;71758;48.714;9.584;2024-01-15T10:49:21;10.55;;;3.25;;
82176;SDS011;71758;48.714;9.584;2024-01-15T10:51:49;8.07;;;3.47;;
82176;SDS011;71758;48.714;9.584;2024-01-15T10:54:16;10.38;;;3.03;;
82176;SDS011;71758;48.714;9.584;2024-01-15T10:56:41;7.93;;;2.78;;
82176;SDS011;71758;48.714;9.584;2024-01-15T10:59:07;8.52;;;3.20;;
82176;SDS011;71758;48.714;9.584;2024-01-15T11:01:35;7.50;;;3.30;;
82176;SDS011;71758;48.714;9.584;2024-01-15T11:04:04;7.57;;;2.72;;
82176;SDS011;71758;48.714;9.584;2024-01-15T11:06:41;9.02;;;2.90;;
82176;SDS011;71758;48.714;9.584;2024-01-15T11:09:07;9.35;;;3.10;;
82176;SDS011;71758;48.714;9.584;2024-01-15T11:11:35;7.57;;;3.20;;
82176;SDS011;71758;48.714;9.584;2024-01-15T11:14:01;8.82;;;3.10;;
82176;SDS011;71758;48.714;9.584;2024-01-15T11:16:29;7.68;;;3.08;;
82176;SDS011;71758;48.714;9.584;2024-01-15T11:19:18;6.65;;;2.90;;
82176;SDS011;71758;48.714;9.584;2024-01-15T11:21:44;6.20;;;2.78;;
82176;SDS011;71758;48.714;9.584;2024-01-15T11:24:09;8.82;;;2.95;;
82176;SDS011;71758;48.714;9.584;2024-01-15T11:26:38;6.90;;;2.50;;
82176;SDS011;71758;48.714;9.584;2024-01-15T11:31:57;7.03;;;3.20;;
82176;SDS011;71758;48.714;9.584;2024-01-15T11:34:49;9.57;;;2.83;;
82176;SDS011;71758;48.714;9.584;2024-01-15T11:37:14;8.43;;;2.85;;
82176;SDS011;71758;48.714;9.584;2024-01-15T11:39:42;7.68;;;2.97;;
82176;SDS011;71758;48.714;9.584;2024-01-15T11:42:08;8.63;;;2.88;;
82176;SDS011;71758;48.714;9.584;2024-01-15T11:44:35;8.23;;;2.90;;
82176;SDS011;71758;48.714;9.584;2024-01-15T11:47:02;6.03;;;2.28;;
82176;SDS011;71758;48.714;9.584;2024-01-15T11:52:21;7.10;;;2.78;;
82176;SDS011;71758;48.714;9.584;2024-01-15T11:57:42;8.18;;;3.17;;
82176;SDS011;71758;48.714;9.584;2024-01-15T12:00:11;8.32;;;2.97;;
82176;SDS011;71758;48.714;9.584;2024-01-15T12:02:38;6.20;;;3.25;;
82176;SDS011;71758;48.714;9.584;2024-01-15T12:05:04;8.93;;;3.10;;
82176;SDS011;71758;48.714;9.584;2024-01-15T12:07:30;7.03;;;2.97;;
82176;SDS011;71758;48.714;9.584;2024-01-15T12:10:02;7.43;;;2.80;;
82176;SDS011;71758;48.714;9.584;2024-01-15T12:15:31;6.45;;;3.00;;
82176;SDS011;71758;48.714;9.584;2024-01-15T12:17:58;6.55;;;2.47;;
82176;SDS011;71758;48.714;9.584;2024-01-15T12:20:28;7.97;;;3.08;;
82176;SDS011;71758;48.714;9.584;2024-01-15T12:22:54;6.47;;;2.53;;
82176;SDS011;71758;48.714;9.584;2024-01-15T12:25:21;5.88;;;2.58;;
82176;SDS011;71758;48.714;9.584;2024-01-15T12:27:47;6.30;;;2.80;;
82176;SDS011;71758;48.714;9.584;2024-01-15T12:30:13;10.80;;;2.97;;
82176;SDS011;71758;48.714;9.584;2024-01-15T12:32:42;8.93;;;3.10;;
82176;SDS011;71758;48.714;9.584;2024-01-15T12:35:07;8.57;;;2.90;;
82176;SDS011;71758;48.714;9.584;2024-01-15T12:37:37;7.32;;;3.55;;
82176;SDS011;71758;48.714;9.584;2024-01-15T12:40:04;8.70;;;3.35;;
82176;SDS011;71758;48.714;9.584;2024-01-15T12:42:35;8.65;;;3.10;;
82176;SDS011;71758;48.714;9.584;2024-01-15T12:45:01;7.78;;;3.05;;
82176;SDS011;71758;48.714;9.584;2024-01-15T12:47:28;10.43;;;3.47;;
82176;SDS011;71758;48.714;9.584;2024-01-15T12:49:54;7.50;;;3.08;;
82176;SDS011;71758;48.714;9.584;2024-01-15T12:52:20;9.02;;;3.60;;
82176;SDS011;71758;48.714;9.584;2024-01-15T12:54:47;8.95;;;3.30;;
82176;SDS011;71758;48.714;9.584;2024-01-15T12:57:13;9.60;;;4.05;;
82176;SDS011;71758;48.714;9.584;2024-01-15T12:59:39;7.10;;;3.50;;
82176;SDS011;71758;48.714;9.584;2024-01-15T13:02:04;15.50;;;4.53;;
82176;SDS011;71758;48.714;9.584;2024-01-15T13:04:29;8.73;;;3.63;;
82176;SDS011;71758;48.714;9.584;2024-01-15T13:06:55;10.82;;;4.60;;
82176;SDS011;71758;48.714;9.584;2024-01-15T13:09:20;11.63;;;4.30;;
82176;SDS011;71758;48.714;9.584;2024-01-15T13:11:46;12.20;;;4.90;;
82176;SDS011;71758;48.714;9.584;2024-01-15T13:14:12;10.45;;;4.38;;
82176;SDS011;71758;48.714;9.584;2024-01-15T13:16:40;10.32;;;4.75;;
82176;SDS011;71758;48.714;9.584;2024-01-15T13:19:09;10.95;;;5.07;;
82176;SDS011;71758;48.714;9.584;2024-01-15T13:21:36;12.15;;;5.05;;
82176;SDS011;71758;48.714;9.584;2024-01-15T13:24:02;12.35;;;5.25;;
82176;SDS011;71758;48.714;9.584;2024-01-15T13:26:31;11.68;;;5.38;;
82176;SDS011;71758;48.714;9.584;2024-01-15T13:28:57;9.52;;;5.15;;
82176;SDS011;71758;48.714;9.584;2024-01-15T13:31:24;10.43;;;4.57;;
82176;SDS011;71758;48.714;9.584;2024-01-15T13:33:49;10.93;;;4.47;;
82176;SDS011;71758;48.714;9.584;2024-01-15T13:36:15;10.43;;;5.35;;
82176;SDS011;71758;48.714;9.584;2024-01-15T13:38:40;13.30;;;6.00;;
82176;SDS011;71758;48.714;9.584;2024-01-15T13:41:06;11.00;;;5.00;;
82176;SDS011;71758;48.714;9.584;2024-01-15T13:43:34;13.82;;;5.95;;
82176;SDS011;71758;48.714;9.584;2024-01-15T13:46:00;12.15;;;4.60;;
82176;SDS011;71758;48.714;9.584;2024-01-15T13:48:30;13.32;;;5.00;;
82176;SDS011;71758;48.714;9.584;2024-01-15T13:50:56;16.85;;;5.82;;
82176;SDS011;71758;48.714;9.584;2024-01-15T13:53:22;12.07;;;4.75;;
82176;SDS011;71758;48.714;9.584;2024-01-15T13:55:48;13.93;;;5.63;;
82176;SDS011;71758;48.714;9.584;2024-01-15T13:58:13;15.55;;;6.53;;
82176;SDS011;71758;48.714;9.584;2024-01-15T14:00:38;15.10;;;6.20;;
82176;SDS011;71758;48.714;9.584;2024-01-15T14:03:04;14.63;;;6.70;;
82176;SDS011;71758;48.714;9.584;2024-01-15T14:05:30;13.30;;;6.05;;
82176;SDS011;71758;48.714;9.584;2024-01-15T14:07:55;14.73;;;7.80;;
82176;SDS011;71758;48.714;9.584;2024-01-15T14:10:21;16.52;;;7.43;;
82176;SDS011;71758;48.714;9.584;2024-01-15T14:12:46;13.52;;;6.75;;
82176;SDS011;71758;48.714;9.584;2024-01-15T14:15:11;16.75;;;7.20;;
82176;SDS011;71758;48.714;9.584;2024-01-15T14:17:37;12.93;;;5.80;;
82176;SDS011;71758;48.714;9.584;2024-01-15T14:20:03;15.05;;;6.57;;
82176;SDS011;71758;48.714;9.584;2024-01-15T14:22:30;14.25;;;6.35;;
82176;SDS011;71758;48.714;9.584;2024-01-15T14:24:56;13.95;;;6.80;;
82176;SDS011;71758;48.714;9.584;2024-01-15T14:27:21;14.25;;;6.63;;
82176;SDS011;71758;48.714;9.584;2024-01-15T14:29:46;14.88;;;6.68;;
82176;SDS011;71758;48.714;9.584;2024-01-15T14:32:12;17.27;;;7.22;;
82176;SDS011;71758;48.714;9.584;2024-01-15T14:34:37;16.35;;;7.13;;
82176;SDS011;71758;48.714;9.584;2024-01-15T14:37:03;17.42;;;7.07;;
82176;SDS011;71758;48.714;9.584;2024-01-15T14:39:31;17.88;;;6.85;;
82176;SDS011;71758;48.714;9.584;2024-01-15T14:41:59;14.70;;;6.07;;
82176;SDS011;71758;48.714;9.584;2024-01-15T14:44:25;16.00;;;6.35;;